Mudcat — WCY8255 — position and weather

sailwx.info

Track history (hours):
 
Tides and Currents Weather Stations Pressure Air Temp Water Temp Dewpoint Dewpoint Depression Visibility Wind Speed Wind Dir Waves Ship Positions

Mudcat

Owner: TAURUS MARINE, SAN FRANCISCO, CA. More information available from US FCC via Universal Licensing System and Coast Guard Vessel Documentation Center.

Last reported at 2017-Apr-20 21:26 UTC. Time now 2017-Apr-24 05:35 UTC.
Position N 47°34' W 122°21'.

Length 22 m; draft 2 m.

Type: Tug. MMSI: 366969750.

Date/timePositionNaut miles runAvg speedWind from/ knotsBaromVisibWave heightAir tempDewpointWater temp
2017-Apr-20 21:26N 47°34' W 122°21'1 2.6
2017-Apr-20 21:00N 47°35' W 122°22'4 8.0
2017-Apr-20 20:30N 47°38' W 122°25'2 4.0
2017-Apr-20 20:00N 47°40' W 122°24'1 1.2
2017-Apr-20 19:30N 47°40' W 122°24'2 4.7
2017-Apr-20 19:01N 47°39' W 122°21'2 4.2
2017-Apr-20 18:27N 47°39' W 122°17'1 1.0
2017-Apr-20 17:56N 47°39' W 122°18'2 3.9
2017-Apr-20 17:31N 47°39' W 122°20'2 5.0
2017-Apr-20 17:00N 47°40' W 122°24'1 2.1
2017-Apr-20 16:31N 47°41' W 122°25'3 4.9
2017-Apr-20 16:00N 47°38' W 122°25'4 7.6
2017-Apr-20 15:30N 47°35' W 122°22'2 3.8
2017-Apr-20 15:00N 47°33' W 122°21'0 0.7
2017-Apr-20 14:30N 47°34' W 122°21'  
Track history (hours):
 
Tides and Currents Weather Stations Pressure Air Temp Water Temp Dewpoint Dewpoint Depression Visibility Wind Speed Wind Dir Waves Ship Positions

Mudcat

Owner: TAURUS MARINE, SAN FRANCISCO, CA. More information available from US FCC via Universal Licensing System and Coast Guard Vessel Documentation Center.

Last reported at 2017-Apr-20 21:26 UTC. Time now 2017-Apr-24 05:35 UTC.
Position N 47°34' W 122°21'.

Length 22 m; draft 2 m.

Type: Tug. MMSI: 366969750.

Date/timePositionNaut miles runAvg speedWind from/ knotsBaromVisibWave heightAir tempDewpointWater temp
2017-Apr-20 21:26N 47°34' W 122°21'1 2.6
2017-Apr-20 21:00N 47°35' W 122°22'4 8.0
2017-Apr-20 20:30N 47°38' W 122°25'2 4.0
2017-Apr-20 20:00N 47°40' W 122°24'1 1.2
2017-Apr-20 19:30N 47°40' W 122°24'2 4.7
2017-Apr-20 19:01N 47°39' W 122°21'2 4.2
2017-Apr-20 18:27N 47°39' W 122°17'1 1.0
2017-Apr-20 17:56N 47°39' W 122°18'2 3.9
2017-Apr-20 17:31N 47°39' W 122°20'2 5.0
2017-Apr-20 17:00N 47°40' W 122°24'1 2.1
2017-Apr-20 16:31N 47°41' W 122°25'3 4.9
2017-Apr-20 16:00N 47°38' W 122°25'4 7.6
2017-Apr-20 15:30N 47°35' W 122°22'2 3.8
2017-Apr-20 15:00N 47°33' W 122°21'0 0.7
2017-Apr-20 14:30N 47°34' W 122°21'  

Dump ship's entire track history